createdAt,value
2024-01-12T00:00:37.831Z,33.53
2024-01-12T00:01:35.102Z,37.00
2024-01-12T00:02:32.785Z,35.97
2024-01-12T00:03:31.051Z,36.13
2024-01-12T00:04:29.164Z,32.25
2024-01-12T00:05:26.441Z,34.22
2024-01-12T00:06:24.599Z,37.35
2024-01-12T00:07:22.741Z,36.30
2024-01-12T00:08:20.622Z,37.67
2024-01-12T00:09:18.214Z,34.35
2024-01-12T00:10:15.722Z,33.95
2024-01-12T00:11:13.774Z,37.60
2024-01-12T00:12:11.931Z,34.30
2024-01-12T00:13:10.041Z,33.33
2024-01-12T00:14:07.689Z,32.47
2024-01-12T00:15:06.690Z,35.30
2024-01-12T00:16:07.847Z,31.48
2024-01-12T00:17:05.428Z,33.08
2024-01-12T00:18:03.714Z,37.25
2024-01-12T00:19:02.731Z,37.08
2024-01-12T00:20:00.444Z,37.90
2024-01-12T00:20:57.847Z,38.83
2024-01-12T00:21:56.424Z,35.45
2024-01-12T00:22:57.578Z,34.22
2024-01-12T00:23:55.374Z,31.98
2024-01-12T00:24:55.445Z,36.42
2024-01-12T00:25:52.456Z,35.50
2024-01-12T00:26:50.623Z,34.50
2024-01-12T00:27:47.632Z,36.08
2024-01-12T00:28:44.604Z,32.13
2024-01-12T00:29:41.782Z,38.42
2024-01-12T00:30:38.984Z,36.92
2024-01-12T00:31:36.272Z,33.55
2024-01-12T00:32:33.543Z,36.88
2024-01-12T00:33:30.960Z,36.75
2024-01-12T00:34:29.171Z,34.05
2024-01-12T00:35:26.865Z,34.70
2024-01-12T00:36:27.065Z,33.70
2024-01-12T00:38:23.555Z,32.75
2024-01-12T00:39:21.125Z,32.80
2024-01-12T00:40:19.401Z,38.38
2024-01-12T00:41:17.305Z,34.42
2024-01-12T00:42:14.628Z,36.92
2024-01-12T00:43:12.730Z,31.60
2024-01-12T00:44:10.731Z,34.53
2024-01-12T00:45:09.475Z,37.88
2024-01-12T00:46:08.433Z,36.78
2024-01-12T00:47:06.790Z,34.20
2024-01-12T00:48:06.457Z,36.33
2024-01-12T00:49:04.854Z,35.13
2024-01-12T00:50:03.289Z,34.28
2024-01-12T00:51:01.776Z,35.80
2024-01-12T00:51:59.538Z,34.50
2024-01-12T00:52:57.413Z,37.80
2024-01-12T00:53:55.442Z,34.25
2024-01-12T00:54:53.685Z,35.92
2024-01-12T00:55:51.447Z,35.90
2024-01-12T00:56:49.198Z,34.20
2024-01-12T00:57:47.372Z,36.85
2024-01-12T00:58:46.676Z,38.63
2024-01-12T00:59:44.891Z,35.72
2024-01-12T01:00:42.942Z,39.75
2024-01-12T01:01:41.058Z,38.67
2024-01-12T01:02:39.192Z,32.40
2024-01-12T01:03:38.965Z,36.28
2024-01-12T01:04:37.344Z,34.42
2024-01-12T01:05:36.105Z,33.17
2024-01-12T01:06:34.562Z,35.55
2024-01-12T01:07:33.386Z,34.58
2024-01-12T01:08:31.755Z,35.88
2024-01-12T01:09:30.091Z,35.83
2024-01-12T01:10:28.405Z,33.85
2024-01-12T01:11:26.581Z,31.65
2024-01-12T01:12:24.352Z,35.45
2024-01-12T01:13:21.820Z,38.85
2024-01-12T01:14:19.830Z,32.03
2024-01-12T01:15:18.276Z,34.40
2024-01-12T01:16:16.257Z,33.28
2024-01-12T01:17:14.080Z,34.70
2024-01-12T01:18:12.496Z,33.08
2024-01-12T01:19:10.861Z,34.28
2024-01-12T01:20:12.264Z,33.65
2024-01-12T01:21:10.510Z,35.17
2024-01-12T01:22:08.265Z,35.70
2024-01-12T01:23:05.930Z,34.17
2024-01-12T01:24:04.255Z,33.38
2024-01-12T01:25:03.632Z,32.17
2024-01-12T01:26:01.688Z,35.58
2024-01-12T01:26:59.756Z,36.08
2024-01-12T01:27:57.655Z,33.78
2024-01-12T01:28:57.312Z,38.05
2024-01-12T01:29:55.523Z,35.00
2024-01-12T01:30:53.462Z,34.53
2024-01-12T01:31:51.385Z,34.15
2024-01-12T01:32:53.184Z,32.25
2024-01-12T01:33:51.411Z,35.28
2024-01-12T01:34:49.808Z,35.55
2024-01-12T01:35:47.907Z,35.60
2024-01-12T01:36:46.001Z,33.60
2024-01-12T01:37:44.545Z,37.90
2024-01-12T01:38:43.014Z,30.27
2024-01-12T01:39:41.130Z,38.92
2024-01-12T01:40:39.184Z,32.40
2024-01-12T01:41:38.630Z,35.17
2024-01-12T01:42:36.336Z,32.25
2024-01-12T01:43:34.127Z,32.30
2024-01-12T01:44:32.012Z,35.47
2024-01-12T01:45:29.642Z,32.30
2024-01-12T01:46:28.123Z,34.53
2024-01-12T01:47:26.207Z,35.17
2024-01-12T01:48:24.183Z,34.22
2024-01-12T01:49:22.705Z,37.55
2024-01-12T01:50:20.872Z,39.75
2024-01-12T01:51:19.142Z,35.20
2024-01-12T01:52:17.524Z,34.22
2024-01-12T01:53:15.677Z,37.45
2024-01-12T01:54:14.109Z,35.83
2024-01-12T01:55:13.619Z,37.38
2024-01-12T01:56:11.774Z,37.85
2024-01-12T01:57:10.464Z,38.38
2024-01-12T01:58:08.470Z,39.45
2024-01-12T01:59:06.935Z,39.72
2024-01-12T02:00:06.034Z,34.95
2024-01-12T02:01:04.464Z,38.15
2024-01-12T02:02:04.800Z,38.28
2024-01-12T02:03:03.541Z,37.28
2024-01-12T02:04:02.125Z,34.92
2024-01-12T02:05:00.703Z,37.53
2024-01-12T02:06:00.480Z,43.50
2024-01-12T02:06:58.233Z,31.52
2024-01-12T02:07:56.559Z,42.55
2024-01-12T02:08:54.964Z,39.30
2024-01-12T02:09:53.539Z,39.17
2024-01-12T02:10:53.812Z,39.63
2024-01-12T02:11:51.835Z,38.05
2024-01-12T02:12:50.284Z,43.38
2024-01-12T02:13:48.999Z,26.42
2024-01-12T02:14:47.652Z,41.13
2024-01-12T02:15:45.925Z,40.42
2024-01-12T02:16:44.468Z,41.80
2024-01-12T02:17:42.898Z,40.97
2024-01-12T02:18:41.516Z,42.72
2024-01-12T02:19:39.849Z,39.58
2024-01-12T02:20:38.246Z,40.10
2024-01-12T02:21:36.615Z,37.75
2024-01-12T02:22:35.004Z,38.55
2024-01-12T02:23:33.303Z,42.30
2024-01-12T02:24:31.702Z,42.60
2024-01-12T02:25:30.563Z,38.80
2024-01-12T02:26:29.153Z,39.95
2024-01-12T02:27:27.688Z,41.13
2024-01-12T02:28:25.738Z,39.55
2024-01-12T02:29:24.005Z,40.80
2024-01-12T02:30:22.566Z,40.08
2024-01-12T02:31:20.790Z,39.75
2024-01-12T02:32:19.304Z,41.60
2024-01-12T02:33:17.784Z,42.15
2024-01-12T02:34:16.960Z,43.63
2024-01-12T02:35:14.722Z,45.60
2024-01-12T02:36:13.233Z,41.67
2024-01-12T02:37:11.550Z,42.62
2024-01-12T02:38:09.379Z,40.05
2024-01-12T02:39:07.549Z,37.97
2024-01-12T02:40:06.672Z,44.42
2024-01-12T02:41:05.005Z,39.78
2024-01-12T02:42:03.578Z,38.90
2024-01-12T02:43:03.138Z,39.33
2024-01-12T02:44:01.773Z,40.22
2024-01-12T02:45:00.269Z,45.00
2024-01-12T02:45:58.353Z,42.35
2024-01-12T02:46:57.041Z,42.55
2024-01-12T02:47:55.222Z,42.10
2024-01-12T02:48:54.285Z,42.05
2024-01-12T02:49:53.074Z,42.97
2024-01-12T02:50:51.571Z,43.95
2024-01-12T02:51:50.379Z,42.95
2024-01-12T02:52:48.801Z,42.97
2024-01-12T02:53:46.831Z,43.58
2024-01-12T02:54:47.308Z,42.38
2024-01-12T02:55:45.840Z,46.65
2024-01-12T02:56:44.612Z,40.00
2024-01-12T02:57:42.632Z,43.63
2024-01-12T02:58:41.297Z,47.30
2024-01-12T02:59:39.735Z,44.13
2024-01-12T03:00:38.331Z,41.90
2024-01-12T03:01:36.697Z,44.45
2024-01-12T03:02:35.073Z,40.45
2024-01-12T03:03:33.593Z,44.30
2024-01-12T03:04:32.049Z,43.45
2024-01-12T03:05:30.511Z,40.30
2024-01-12T03:06:28.578Z,47.22
2024-01-12T03:07:26.375Z,41.92
2024-01-12T03:08:24.550Z,46.47
2024-01-12T03:09:24.763Z,40.40
2024-01-12T03:10:22.721Z,36.17
2024-01-12T03:11:21.244Z,44.35
2024-01-12T03:12:19.546Z,45.38
2024-01-12T03:13:17.975Z,45.28
2024-01-12T03:14:16.693Z,42.00
2024-01-12T03:15:15.241Z,42.45
2024-01-12T03:16:25.600Z,46.35
2024-01-12T03:17:24.049Z,45.12
2024-01-12T03:18:24.054Z,46.03
2024-01-12T03:19:23.358Z,45.25
2024-01-12T03:20:22.239Z,44.25
2024-01-12T03:21:20.656Z,40.35
2024-01-12T03:22:19.163Z,44.35
2024-01-12T03:23:17.693Z,46.65
2024-01-12T03:24:15.403Z,42.62
2024-01-12T03:25:14.778Z,46.03
2024-01-12T03:26:13.522Z,43.65
2024-01-12T03:27:12.102Z,40.08
2024-01-12T03:28:10.510Z,45.40
2024-01-12T03:29:08.366Z,43.55
2024-01-12T03:30:07.089Z,40.58
2024-01-12T03:31:06.229Z,46.33
2024-01-12T03:32:05.267Z,42.13
2024-01-12T03:33:03.588Z,43.72
2024-01-12T03:34:01.973Z,45.60
2024-01-12T03:35:00.784Z,38.80
2024-01-12T03:36:02.188Z,47.03
2024-01-12T03:37:00.641Z,43.42
2024-01-12T03:37:58.892Z,43.70
2024-01-12T03:38:56.952Z,42.95
2024-01-12T03:39:55.606Z,44.25
2024-01-12T03:40:53.695Z,40.95
2024-01-12T03:41:51.934Z,45.70
2024-01-12T03:42:49.880Z,41.35
2024-01-12T03:43:48.411Z,44.10
2024-01-12T03:44:47.138Z,44.05
2024-01-12T03:45:45.235Z,39.45
2024-01-12T03:46:43.769Z,40.25
2024-01-12T03:47:42.226Z,42.53
2024-01-12T03:48:42.346Z,43.45
2024-01-12T03:49:40.986Z,41.88
2024-01-12T03:50:38.889Z,43.33
2024-01-12T03:51:37.747Z,44.15
2024-01-12T03:52:36.558Z,42.75
2024-01-12T03:53:35.087Z,42.75
2024-01-12T03:54:33.512Z,41.72
2024-01-12T03:55:31.940Z,43.17
2024-01-12T03:56:30.451Z,45.47
2024-01-12T03:57:28.797Z,45.55
2024-01-12T03:58:27.044Z,41.75
2024-01-12T03:59:25.970Z,44.80
2024-01-12T04:00:24.924Z,40.63
2024-01-12T04:01:24.731Z,41.37
2024-01-12T04:02:23.365Z,41.97
2024-01-12T04:03:21.957Z,41.45
2024-01-12T04:04:20.377Z,43.35
2024-01-12T04:05:18.694Z,40.80
2024-01-12T04:06:16.094Z,41.05
2024-01-12T04:07:14.491Z,44.30
2024-01-12T04:08:12.530Z,44.83
2024-01-12T04:09:14.870Z,44.08
2024-01-12T04:10:13.297Z,41.92
2024-01-12T04:11:11.700Z,40.17
2024-01-12T04:12:10.780Z,39.13
2024-01-12T04:13:09.678Z,41.92
2024-01-12T04:14:07.606Z,40.00
2024-01-12T04:15:06.089Z,46.37
2024-01-12T04:16:03.998Z,42.05
2024-01-12T04:17:02.178Z,44.72
2024-01-12T04:18:00.606Z,40.28
2024-01-12T04:18:59.315Z,39.53
2024-01-12T04:19:58.050Z,38.83
2024-01-12T04:20:56.529Z,38.47
2024-01-12T04:21:54.850Z,37.00
2024-01-12T04:22:53.427Z,39.58
2024-01-12T04:23:51.884Z,44.15
2024-01-12T04:24:50.114Z,39.78
2024-01-12T04:25:51.276Z,36.88
2024-01-12T04:26:49.701Z,39.47
2024-01-12T04:27:47.996Z,37.85
2024-01-12T04:28:46.593Z,40.15
2024-01-12T04:29:45.139Z,39.35
2024-01-12T04:30:42.488Z,41.10
2024-01-12T04:31:42.416Z,36.55
2024-01-12T04:32:39.616Z,29.65
2024-01-12T04:33:37.125Z,39.03
2024-01-12T04:34:38.082Z,38.95
2024-01-12T04:36:32.476Z,39.60
2024-01-12T04:37:29.644Z,42.55
2024-01-12T04:38:27.901Z,41.25
2024-01-12T04:39:25.346Z,41.83
2024-01-12T04:40:22.593Z,41.33
2024-01-12T04:41:20.280Z,40.72
2024-01-12T04:42:17.725Z,40.88
2024-01-12T04:43:14.943Z,40.90
2024-01-12T04:44:12.253Z,38.72
2024-01-12T04:45:11.007Z,41.17
2024-01-12T04:46:08.603Z,41.45
2024-01-12T04:47:06.725Z,39.17
2024-01-12T04:48:04.244Z,38.15
2024-01-12T04:49:01.856Z,40.17
2024-01-12T04:49:59.091Z,38.45
2024-01-12T04:50:57.165Z,38.38
2024-01-12T04:51:54.717Z,37.78
2024-01-12T04:52:53.481Z,37.72
2024-01-12T04:53:50.845Z,38.35
2024-01-12T04:54:48.002Z,36.25
2024-01-12T04:55:45.457Z,39.50
2024-01-12T04:56:42.698Z,39.40
2024-01-12T04:57:40.048Z,40.33
2024-01-12T04:58:37.706Z,40.90
2024-01-12T04:59:34.879Z,41.50
2024-01-12T05:00:32.133Z,41.75
2024-01-12T05:01:29.357Z,41.17
2024-01-12T05:02:26.538Z,44.00
2024-01-12T05:03:23.789Z,40.63
2024-01-12T05:04:21.876Z,42.17
2024-01-12T05:05:19.671Z,41.55
2024-01-12T05:06:17.370Z,39.90
2024-01-12T05:07:15.120Z,41.42
2024-01-12T05:08:12.500Z,42.58
2024-01-12T05:09:09.638Z,41.67
2024-01-12T05:10:08.425Z,39.55
2024-01-12T05:11:05.909Z,41.10
2024-01-12T05:12:06.464Z,44.00
2024-01-12T05:13:03.960Z,38.67
2024-01-12T05:14:01.370Z,40.65
2024-01-12T05:14:58.561Z,39.65
2024-01-12T05:15:55.875Z,39.28
2024-01-12T05:16:52.984Z,40.55
2024-01-12T05:17:50.197Z,43.53
2024-01-12T05:18:47.741Z,38.42
2024-01-12T05:19:45.283Z,41.55
2024-01-12T05:20:42.569Z,38.10
2024-01-12T05:21:40.041Z,44.35
2024-01-12T05:22:37.844Z,38.00
2024-01-12T05:23:35.179Z,35.47
2024-01-12T05:24:32.377Z,42.67
2024-01-12T05:25:30.006Z,38.03
2024-01-12T05:26:27.272Z,40.70
2024-01-12T05:27:24.469Z,41.65
2024-01-12T05:28:21.693Z,41.95
2024-01-12T05:29:18.890Z,49.65
2024-01-12T05:30:16.170Z,39.38
2024-01-12T05:31:14.880Z,43.92
2024-01-12T05:32:12.764Z,42.88
2024-01-12T05:33:10.065Z,40.80
2024-01-12T05:34:07.498Z,40.20
2024-01-12T05:35:05.334Z,38.78
2024-01-12T05:36:03.418Z,41.97
2024-01-12T05:37:00.734Z,45.22
2024-01-12T05:37:57.880Z,41.15
2024-01-12T05:38:55.105Z,37.97
2024-01-12T05:39:52.321Z,41.75
2024-01-12T05:40:49.583Z,42.67
2024-01-12T05:41:46.948Z,42.28
2024-01-12T05:42:44.432Z,41.13
2024-01-12T05:43:41.718Z,40.47
2024-01-12T05:44:38.980Z,48.50
2024-01-12T05:45:36.451Z,40.03
2024-01-12T05:46:33.763Z,53.40
2024-01-12T05:47:31.061Z,46.70
2024-01-12T05:48:28.866Z,40.33
2024-01-12T05:49:26.510Z,42.10
2024-01-12T05:50:23.761Z,45.38
2024-01-12T05:51:21.975Z,40.67
2024-01-12T05:52:19.171Z,41.28
2024-01-12T05:53:18.125Z,40.83
2024-01-12T05:54:16.235Z,42.83
2024-01-12T05:55:13.824Z,42.42
2024-01-12T05:56:11.763Z,45.92
2024-01-12T05:57:09.118Z,42.47
2024-01-12T05:58:06.291Z,42.28
2024-01-12T05:59:04.308Z,43.22
2024-01-12T06:00:03.619Z,40.88
2024-01-12T06:01:01.126Z,42.38
2024-01-12T06:01:58.321Z,43.10
2024-01-12T06:02:55.550Z,44.50
2024-01-12T06:03:52.745Z,57.65
2024-01-12T06:04:50.024Z,77.37
2024-01-12T06:05:50.361Z,68.85
2024-01-12T06:06:47.897Z,51.85
2024-01-12T06:07:45.975Z,54.30
2024-01-12T06:08:43.649Z,44.42
2024-01-12T06:09:41.802Z,40.53
2024-01-12T06:10:39.301Z,39.75
2024-01-12T06:11:36.777Z,41.15
2024-01-12T06:12:33.951Z,38.20
2024-01-12T06:13:31.263Z,38.65
2024-01-12T06:14:28.600Z,52.58
2024-01-12T06:15:25.965Z,44.72
2024-01-12T06:16:23.235Z,45.80
2024-01-12T06:17:20.634Z,46.08
2024-01-12T06:18:18.702Z,42.53
2024-01-12T06:19:16.239Z,44.00
2024-01-12T06:20:13.727Z,44.70
2024-01-12T06:21:11.072Z,40.28
2024-01-12T06:22:08.572Z,43.28
2024-01-12T06:23:07.198Z,41.47
2024-01-12T06:24:04.625Z,41.42
2024-01-12T06:25:01.930Z,36.88
2024-01-12T06:26:00.177Z,41.75
2024-01-12T06:26:57.478Z,47.38
2024-01-12T06:27:55.189Z,43.30
2024-01-12T06:28:52.457Z,46.25
2024-01-12T06:29:49.655Z,44.30
2024-01-12T06:30:46.965Z,42.53
2024-01-12T06:31:44.552Z,45.97
2024-01-12T06:32:41.922Z,45.92
2024-01-12T06:33:39.261Z,46.72
2024-01-12T06:34:40.608Z,47.33
2024-01-12T06:35:37.938Z,46.28
2024-01-12T06:36:35.172Z,45.63
2024-01-12T06:37:32.383Z,44.45
2024-01-12T06:38:29.604Z,41.42
2024-01-12T06:39:26.945Z,45.47
2024-01-12T06:40:24.505Z,42.65
2024-01-12T06:41:21.803Z,43.80
2024-01-12T06:42:19.466Z,47.45
2024-01-12T06:43:16.769Z,41.10
2024-01-12T06:44:15.320Z,42.95
2024-01-12T06:45:13.240Z,43.87
2024-01-12T06:46:10.488Z,41.95
2024-01-12T06:47:09.068Z,41.45
2024-01-12T06:48:06.692Z,43.58
2024-01-12T06:49:04.041Z,41.78
2024-01-12T06:50:02.343Z,43.35
2024-01-12T06:50:59.715Z,47.28
2024-01-12T06:51:57.029Z,42.92
2024-01-12T06:52:54.154Z,42.00
2024-01-12T06:53:51.427Z,52.78
2024-01-12T06:54:48.542Z,43.45
2024-01-12T06:55:45.785Z,50.05
2024-01-12T06:56:43.091Z,44.72
2024-01-12T06:57:40.379Z,46.37
2024-01-12T06:58:37.681Z,44.58
2024-01-12T06:59:36.065Z,45.25
2024-01-12T07:00:33.386Z,47.78
2024-01-12T07:01:30.446Z,46.03
2024-01-12T07:02:27.657Z,47.65
2024-01-12T07:03:25.081Z,43.72
2024-01-12T07:04:22.524Z,41.70
2024-01-12T07:05:19.715Z,45.28
2024-01-12T07:06:16.909Z,45.08
2024-01-12T07:07:14.436Z,47.80
2024-01-12T07:08:11.902Z,45.00
2024-01-12T07:09:13.296Z,44.08
2024-01-12T07:10:12.861Z,43.30
2024-01-12T07:11:10.079Z,41.78
2024-01-12T07:12:07.534Z,42.22
2024-01-12T07:13:04.952Z,43.15
2024-01-12T07:14:02.037Z,41.17
2024-01-12T07:14:59.562Z,43.47
2024-01-12T07:15:56.797Z,43.53
2024-01-12T07:16:54.004Z,44.22
2024-01-12T07:17:52.378Z,43.47
2024-01-12T07:18:50.024Z,44.67
2024-01-12T07:19:47.699Z,45.80
2024-01-12T07:20:44.981Z,37.60
2024-01-12T07:21:42.332Z,41.30
2024-01-12T07:22:39.560Z,46.20
2024-01-12T07:23:36.852Z,40.15
2024-01-12T07:24:34.067Z,45.35
2024-01-12T07:25:33.092Z,39.13
2024-01-12T07:26:30.456Z,40.70
2024-01-12T07:27:27.603Z,43.95
2024-01-12T07:28:26.365Z,44.22
2024-01-12T07:29:23.989Z,43.58
2024-01-12T07:30:21.836Z,42.13
2024-01-12T07:31:20.000Z,41.85
2024-01-12T07:32:17.294Z,43.00
2024-01-12T07:33:14.953Z,41.80
2024-01-12T07:34:12.322Z,38.90
2024-01-12T07:35:11.511Z,41.08
2024-01-12T07:36:10.243Z,39.97
2024-01-12T07:37:10.375Z,42.65
2024-01-12T07:38:08.118Z,41.22
2024-01-12T07:39:05.553Z,40.97
2024-01-12T07:40:04.171Z,40.00
2024-01-12T07:41:02.405Z,41.47
2024-01-12T07:42:00.062Z,42.80
2024-01-12T07:42:57.533Z,40.45
2024-01-12T07:43:55.641Z,40.75
2024-01-12T07:44:53.454Z,41.05
2024-01-12T07:45:50.932Z,40.88
2024-01-12T07:46:48.075Z,42.58
2024-01-12T07:47:45.461Z,47.25
2024-01-12T07:48:42.994Z,40.12
2024-01-12T07:49:40.352Z,41.58
2024-01-12T07:50:38.179Z,40.78
2024-01-12T07:51:36.432Z,37.60
2024-01-12T07:52:33.748Z,40.60
2024-01-12T07:53:31.658Z,40.35
2024-01-12T07:54:29.119Z,39.15
2024-01-12T07:55:26.541Z,45.28
2024-01-12T07:56:24.316Z,39.38
2024-01-12T07:57:21.406Z,45.35
2024-01-12T07:58:21.025Z,43.33
2024-01-12T07:59:18.351Z,41.42
2024-01-12T08:00:16.240Z,40.95
2024-01-12T08:01:14.908Z,41.42
2024-01-12T08:02:12.786Z,38.83
2024-01-12T08:03:09.970Z,38.13
2024-01-12T08:04:07.200Z,39.13
2024-01-12T08:05:05.692Z,36.90
2024-01-12T08:06:03.024Z,38.83
2024-01-12T08:07:01.056Z,41.22
2024-01-12T08:07:58.630Z,41.40
2024-01-12T08:13:06.144Z,36.63
2024-01-12T08:14:01.905Z,35.95
2024-01-12T08:14:59.546Z,36.15
2024-01-12T08:15:56.839Z,41.42
2024-01-12T08:16:55.727Z,39.50
2024-01-12T08:17:53.068Z,40.15
2024-01-12T08:18:50.418Z,39.78
2024-01-12T08:19:48.654Z,39.42
2024-01-12T08:20:47.021Z,37.70
2024-01-12T08:21:49.566Z,41.05
2024-01-12T08:22:52.749Z,41.13
2024-01-12T08:23:50.250Z,38.08
2024-01-12T08:24:47.377Z,41.33
2024-01-12T08:25:44.710Z,43.47
2024-01-12T08:26:42.002Z,42.72
2024-01-12T08:27:39.284Z,37.45
2024-01-12T08:28:36.325Z,38.47
2024-01-12T08:29:33.858Z,36.03
2024-01-12T08:30:31.210Z,41.50
2024-01-12T08:31:30.411Z,40.80
2024-01-12T08:32:30.679Z,39.45
2024-01-12T08:33:29.892Z,32.17
2024-01-12T08:34:28.117Z,37.20
2024-01-12T08:35:27.651Z,38.55
2024-01-12T08:36:24.871Z,39.55
2024-01-12T08:37:22.240Z,39.33
2024-01-12T08:38:20.101Z,37.05
2024-01-12T08:39:52.789Z,41.20
2024-01-12T08:40:40.473Z,39.08
2024-01-12T08:41:39.042Z,40.28
2024-01-12T08:42:39.007Z,38.03
2024-01-12T08:43:38.036Z,28.52
2024-01-12T08:44:37.266Z,39.22
2024-01-12T08:45:35.752Z,39.28
2024-01-12T08:46:42.483Z,45.00
2024-01-12T08:47:39.821Z,40.72
2024-01-12T08:48:37.621Z,41.88
2024-01-12T08:49:35.309Z,36.67
2024-01-12T08:50:32.785Z,38.47
2024-01-12T08:51:37.680Z,38.85
2024-01-12T08:52:35.483Z,39.83
2024-01-12T08:53:32.958Z,43.05
2024-01-12T08:54:30.344Z,40.80
2024-01-12T08:56:02.200Z,38.22
2024-01-12T08:56:51.801Z,39.50
2024-01-12T08:57:49.238Z,40.55
2024-01-12T08:58:48.423Z,38.92
2024-01-12T08:59:46.128Z,36.92
2024-01-12T09:00:43.500Z,38.45
2024-01-12T09:01:40.837Z,39.42
2024-01-12T09:02:38.189Z,37.35
2024-01-12T09:03:35.663Z,40.75
2024-01-12T09:04:33.085Z,44.67
2024-01-12T09:05:30.819Z,40.90
2024-01-12T09:06:28.747Z,40.22
2024-01-12T09:07:26.274Z,37.50
2024-01-12T09:08:23.529Z,36.25
2024-01-12T09:09:20.698Z,33.03
2024-01-12T09:10:17.900Z,39.72
2024-01-12T09:11:15.070Z,39.45
2024-01-12T09:12:12.405Z,38.00
2024-01-12T09:13:09.905Z,38.08
2024-01-12T09:14:10.258Z,38.97
2024-01-12T09:15:09.738Z,38.20
2024-01-12T09:16:10.047Z,40.42
2024-01-12T09:17:07.225Z,37.95
2024-01-12T09:18:05.839Z,39.55
2024-01-12T09:19:04.078Z,39.60
2024-01-12T09:20:01.742Z,40.40
2024-01-12T09:20:59.038Z,39.30
2024-01-12T09:21:56.172Z,37.58
2024-01-12T09:22:53.311Z,35.92
2024-01-12T09:23:50.821Z,38.55
2024-01-12T09:24:48.035Z,43.47
2024-01-12T09:25:45.545Z,33.95
2024-01-12T09:26:42.828Z,37.25
2024-01-12T09:27:40.044Z,37.42
2024-01-12T09:28:40.845Z,39.78
2024-01-12T09:29:37.895Z,43.50
2024-01-12T09:30:36.367Z,38.83
2024-01-12T09:31:33.795Z,37.13
2024-01-12T09:32:31.412Z,40.38
2024-01-12T09:33:29.679Z,39.20
2024-01-12T09:34:27.182Z,37.63
2024-01-12T09:35:25.411Z,36.63
2024-01-12T09:36:22.660Z,34.78
2024-01-12T09:37:19.945Z,36.30
2024-01-12T09:38:17.379Z,36.83
2024-01-12T09:39:16.353Z,38.15
2024-01-12T09:40:13.604Z,40.72
2024-01-12T09:41:11.573Z,34.83
2024-01-12T09:42:10.850Z,37.10
2024-01-12T09:43:15.452Z,37.58
2024-01-12T09:44:13.554Z,38.50
2024-01-12T09:45:20.251Z,35.47
2024-01-12T09:46:22.410Z,37.13
2024-01-12T09:47:19.519Z,33.47
2024-01-12T09:48:16.823Z,37.97
2024-01-12T09:49:14.160Z,37.40
2024-01-12T09:50:12.109Z,38.58
2024-01-12T09:51:09.384Z,34.50
2024-01-12T09:52:09.208Z,42.67
2024-01-12T09:53:06.868Z,35.83
2024-01-12T09:54:04.171Z,37.35
2024-01-12T09:55:01.413Z,38.63
2024-01-12T09:56:05.961Z,38.42
2024-01-12T09:57:09.601Z,35.13
2024-01-12T09:58:08.937Z,33.72
2024-01-12T09:59:06.806Z,36.72
2024-01-12T10:00:06.969Z,38.65
2024-01-12T10:01:04.747Z,31.73
2024-01-12T10:02:02.634Z,34.05
2024-01-12T10:03:00.022Z,35.90
2024-01-12T10:03:57.480Z,37.05
2024-01-12T10:04:54.608Z,34.13
2024-01-12T10:05:52.017Z,37.22
2024-01-12T10:06:49.758Z,33.33
2024-01-12T10:07:47.509Z,42.08
2024-01-12T10:08:45.002Z,41.22
2024-01-12T10:09:42.470Z,35.30
2024-01-12T10:10:40.594Z,45.85
2024-01-12T10:11:38.371Z,37.63
2024-01-12T10:12:36.017Z,34.03
2024-01-12T10:13:33.499Z,35.97
2024-01-12T10:14:30.864Z,39.58
2024-01-12T10:15:28.173Z,37.85
2024-01-12T10:16:30.541Z,37.97
2024-01-12T10:17:27.962Z,35.75
2024-01-12T10:18:25.789Z,34.45
2024-01-12T10:19:24.036Z,34.88
2024-01-12T10:20:23.881Z,36.50
2024-01-12T10:21:21.282Z,40.08
2024-01-12T10:22:18.928Z,36.65
2024-01-12T10:23:22.718Z,31.30
2024-01-12T10:24:23.154Z,33.83
2024-01-12T10:25:20.497Z,37.97
2024-01-12T10:26:18.167Z,31.27
2024-01-12T10:27:15.638Z,35.72
2024-01-12T10:28:18.922Z,37.28
2024-01-12T10:29:16.483Z,34.70
2024-01-12T10:30:14.728Z,31.95
2024-01-12T10:31:12.280Z,38.45
2024-01-12T10:32:12.462Z,34.10
2024-01-12T10:33:09.818Z,34.08
2024-01-12T10:34:12.305Z,35.67
2024-01-12T10:35:11.388Z,36.05
2024-01-12T10:36:14.933Z,32.75
2024-01-12T10:37:13.858Z,36.75
2024-01-12T10:38:11.780Z,35.75
2024-01-12T10:39:11.338Z,30.77
2024-01-12T10:40:09.939Z,31.80
2024-01-12T10:41:08.879Z,31.83
2024-01-12T10:42:09.721Z,33.47
2024-01-12T10:43:12.582Z,31.73
2024-01-12T10:44:10.532Z,27.87
2024-01-12T10:45:08.903Z,28.92
2024-01-12T10:46:18.274Z,33.13
2024-01-12T10:47:20.210Z,34.65
2024-01-12T10:48:21.794Z,36.83
2024-01-12T10:49:24.470Z,33.28
2024-01-12T10:50:24.566Z,30.25
2024-01-12T10:51:23.463Z,34.22
2024-01-12T10:52:33.335Z,35.10
2024-01-12T10:53:55.640Z,33.40
2024-01-12T10:54:59.228Z,31.87
2024-01-12T10:56:00.076Z,35.55
2024-01-12T10:57:55.661Z,32.67
2024-01-12T10:58:53.152Z,34.63
2024-01-12T10:59:51.445Z,37.75
2024-01-12T11:00:49.778Z,32.47
2024-01-12T11:01:48.423Z,37.53
2024-01-12T11:02:48.821Z,34.70
2024-01-12T11:03:46.736Z,34.97
2024-01-12T11:04:44.699Z,35.40
2024-01-12T11:05:42.043Z,69.25
2024-01-12T11:06:40.484Z,36.28
2024-01-12T11:07:42.766Z,32.85
2024-01-12T11:08:41.530Z,33.28
2024-01-12T11:09:39.078Z,31.90
2024-01-12T11:10:38.081Z,33.05
2024-01-12T11:11:48.476Z,35.40
2024-01-12T11:12:46.146Z,39.25
2024-01-12T11:13:44.036Z,41.37
2024-01-12T11:14:42.094Z,35.13
2024-01-12T11:15:41.854Z,28.60
2024-01-12T11:16:39.428Z,32.15
2024-01-12T11:17:38.037Z,30.73
2024-01-12T11:18:38.547Z,29.85
2024-01-12T11:19:37.076Z,33.47
2024-01-12T11:20:34.676Z,32.33
2024-01-12T11:21:32.448Z,32.38
2024-01-12T11:22:30.305Z,30.23
2024-01-12T11:23:27.799Z,39.00
2024-01-12T11:24:25.162Z,33.80
2024-01-12T11:25:22.743Z,32.85
2024-01-12T11:26:21.636Z,32.55
2024-01-12T11:27:19.314Z,30.92
2024-01-12T11:28:16.684Z,34.05
2024-01-12T11:29:16.390Z,32.97
2024-01-12T11:30:16.836Z,33.35
2024-01-12T11:31:26.019Z,36.35
2024-01-12T11:32:24.141Z,30.85
2024-01-12T11:33:21.868Z,37.45
2024-01-12T11:34:20.476Z,36.03
2024-01-12T11:35:19.888Z,36.00
2024-01-12T11:36:19.236Z,36.55
2024-01-12T11:37:16.702Z,34.30
2024-01-12T11:38:14.689Z,40.65
2024-01-12T11:39:13.784Z,35.65
2024-01-12T11:40:17.720Z,33.67
2024-01-12T11:41:15.070Z,34.72
2024-01-12T11:42:12.694Z,39.63
2024-01-12T11:43:16.924Z,36.42
2024-01-12T11:44:14.539Z,34.40
2024-01-12T11:45:14.899Z,36.33
2024-01-12T11:46:13.906Z,34.92
2024-01-12T11:47:12.087Z,34.35
2024-01-12T11:48:10.263Z,33.08
2024-01-12T11:49:07.993Z,32.33
2024-01-12T11:50:07.130Z,32.45
2024-01-12T11:51:05.443Z,34.40
2024-01-12T11:52:07.032Z,33.63
2024-01-12T11:53:04.913Z,32.90
2024-01-12T11:54:03.229Z,34.95
2024-01-12T11:55:00.708Z,34.15
2024-01-12T11:55:57.748Z,34.22
2024-01-12T11:56:55.244Z,34.47
2024-01-12T11:57:54.586Z,31.50
2024-01-12T11:58:53.294Z,33.17
2024-01-12T11:59:50.984Z,31.23
2024-01-12T12:00:51.599Z,31.10
2024-01-12T12:01:49.124Z,30.17
2024-01-12T12:02:52.667Z,32.50
2024-01-12T12:03:54.252Z,30.40
2024-01-12T12:04:55.877Z,34.40
2024-01-12T12:05:53.593Z,29.77
2024-01-12T12:06:51.190Z,32.17
2024-01-12T12:07:48.818Z,32.55
2024-01-12T12:08:45.946Z,34.60
2024-01-12T12:09:43.424Z,32.08
2024-01-12T12:10:45.958Z,33.30
2024-01-12T12:11:44.284Z,30.90
2024-01-12T12:12:42.834Z,34.17
2024-01-12T12:13:40.496Z,34.47
2024-01-12T12:14:37.918Z,29.80
2024-01-12T12:15:36.544Z,32.88
2024-01-12T12:16:35.492Z,32.28
2024-01-12T12:17:35.860Z,32.95
2024-01-12T12:18:33.474Z,33.00
2024-01-12T12:19:31.570Z,31.92
2024-01-12T12:20:29.508Z,27.92
2024-01-12T12:21:26.998Z,28.75
2024-01-12T12:22:25.507Z,29.83
2024-01-12T12:23:23.301Z,30.67
2024-01-12T12:24:20.886Z,30.42
2024-01-12T12:25:18.151Z,30.05
2024-01-12T12:26:15.931Z,29.15
2024-01-12T12:27:13.320Z,31.25
2024-01-12T12:28:10.781Z,30.33
2024-01-12T12:29:08.325Z,27.13
2024-01-12T12:30:13.725Z,31.70
2024-01-12T12:31:12.884Z,30.88
2024-01-12T12:32:16.476Z,27.08
2024-01-12T12:33:14.279Z,26.45
2024-01-12T12:34:12.508Z,24.63
2024-01-12T12:35:28.350Z,28.05
2024-01-12T12:36:26.559Z,26.83
2024-01-12T12:37:24.525Z,27.52
2024-01-12T12:38:23.508Z,31.05
2024-01-12T12:39:21.074Z,27.98
2024-01-12T12:40:18.490Z,28.52